Time;durP1;ratioP1;P1;durP2;ratioP2;P2;SDS_P1;SDS_P2;PMS_P1;PMS_P2;Temp;Humidity;BMP_temperature;BMP_pressure;BME280_temperature;BME280_humidity;BME280_pressure;Samples;Min_cycle;Max_cycle;Signal;HPM_P1;HPM_P2
2021/12/17 00:00:17;;;;;;;37.72;14.75;;;;;;;8.50;100.00;104010.34;5044881;28;20036;-70
2021/12/17 00:05:17;;;;;;;45.50;15.68;;;;;;;8.50;100.00;104021.28;5040062;28;20183;-70
2021/12/17 00:07:42;;;;;;;45.28;14.75;;;;;;;8.31;100.00;104011.72;5043712;28;20032;-71
2021/12/17 00:10:12;;;;;;;38.88;14.30;;;;;;;8.33;100.00;104010.50;5025867;28;20486;-70
2021/12/17 00:12:38;;;;;;;43.83;14.82;;;;;;;8.45;100.00;104014.47;5043637;28;20029;-70
2021/12/17 00:15:05;;;;;;;39.50;13.05;;;;;;;8.73;100.00;104018.41;5043305;28;20443;-71
2021/12/17 00:17:35;;;;;;;32.63;11.57;;;;;;;8.87;100.00;104016.66;5026930;28;20159;-70
2021/12/17 00:49:57;;;;;;;35.88;14.15;;;;;;;8.80;100.00;104028.38;5041343;28;20134;-70
2021/12/17 00:52:23;;;;;;;43.42;15.55;;;;;;;8.74;100.00;104023.69;5039881;28;20032;-71
2021/12/17 00:54:49;;;;;;;37.60;14.68;;;;;;;8.79;100.00;104023.97;5043902;28;20024;-70
2021/12/17 00:57:16;;;;;;;28.50;12.90;;;;;;;8.95;100.00;104022.91;5022145;28;20177;-70
2021/12/17 00:59:46;;;;;;;46.33;16.38;;;;;;;8.91;100.00;104020.72;5044095;28;20394;-70
2021/12/17 01:02:15;;;;;;;34.58;13.68;;;;;;;8.93;100.00;104013.16;5041883;28;21174;-71
2021/12/17 01:04:44;;;;;;;35.38;14.90;;;;;;;8.94;100.00;104012.97;5058893;28;20051;-70
2021/12/17 01:07:12;;;;;;;28.73;13.18;;;;;;;9.09;100.00;104003.88;5058593;28;20020;-70
2021/12/17 01:09:37;;;;;;;39.00;15.95;;;;;;;9.04;100.00;104006.34;5062686;28;20032;-70
2021/12/17 01:12:05;;;;;;;37.15;15.98;;;;;;;9.09;100.00;104003.88;5056627;28;20305;-70
2021/12/17 01:14:31;;;;;;;42.58;16.40;;;;;;;9.06;100.00;104013.31;5062936;28;20048;-70
2021/12/17 01:16:59;;;;;;;35.38;15.15;;;;;;;9.12;100.00;104009.81;5063541;28;20126;-70
2021/12/17 01:22:43;;;;;;;78.65;20.52;;;;;;;9.14;100.00;104020.56;5059355;28;20024;-71
2021/12/17 01:25:08;;;;;;;42.47;16.90;;;;;;;9.19;100.00;104016.19;5063245;28;20143;-70
2021/12/17 01:35:46;;;;;;;57.58;18.13;;;;;;;8.93;100.00;104026.84;5069142;28;20115;-71
2021/12/17 01:43:47;;;;;;;52.00;19.00;;;;;;;9.23;100.00;104015.78;5061065;28;20028;-70
2021/12/17 01:46:22;;;;;;;60.80;19.33;;;;;;;9.26;100.00;104015.41;5059128;28;20111;-69
2021/12/17 01:49:24;;;;;;;83.28;20.52;;;;;;;9.24;100.00;104015.59;5063065;28;20035;-70
2021/12/17 02:00:01;;;;;;;66.95;19.52;;;;;;;9.27;100.00;104012.47;5062078;28;20028;-71
2021/12/17 02:02:31;;;;;;;67.43;19.55;;;;;;;9.34;100.00;104018.84;5058683;28;20059;-71
2021/12/17 02:04:56;;;;;;;55.08;18.00;;;;;;;9.38;100.00;104016.59;5060474;28;20096;-70
2021/12/17 02:07:22;;;;;;;61.08;18.05;;;;;;;9.15;100.00;104008.53;5058425;28;20411;-71
2021/12/17 02:29:01;;;;;;;39.70;21.13;;;;;;;8.73;100.00;104015.69;5061511;28;20028;-70
2021/12/17 02:31:32;;;;;;;44.45;20.23;;;;;;;8.63;100.00;104015.97;5023186;28;20056;-71
2021/12/17 02:34:04;;;;;;;42.55;20.17;;;;;;;8.59;100.00;104014.66;5043965;28;20035;-70
2021/12/17 02:36:33;;;;;;;44.70;20.25;;;;;;;8.25;100.00;104018.81;5037029;28;20025;-70
2021/12/17 02:39:43;;;;;;;42.97;20.30;;;;;;;8.15;100.00;104018.22;5041037;28;20027;-70
2021/12/17 02:47:26;;;;;;;39.45;22.10;;;;;;;8.56;100.00;104023.22;5041644;28;20083;-70
2021/12/17 02:49:51;;;;;;;41.17;22.75;;;;;;;8.14;100.00;104022.84;5038726;28;20138;-70
2021/12/17 02:52:17;;;;;;;39.30;23.73;;;;;;;8.39;100.00;104030.78;5041297;28;20468;-71
2021/12/17 02:54:43;;;;;;;42.90;25.13;;;;;;;8.32;100.00;104030.69;5042830;28;20390;-71
2021/12/17 02:57:11;;;;;;;45.17;26.13;;;;;;;8.45;100.00;104013.66;5040175;28;20025;-69
2021/12/17 02:59:38;;;;;;;40.88;25.05;;;;;;;8.39;100.00;104015.19;5042950;28;20029;-70
2021/12/17 03:02:07;;;;;;;43.33;27.10;;;;;;;8.32;100.00;104017.00;5042189;28;20048;-70
2021/12/17 03:04:39;;;;;;;44.33;27.27;;;;;;;8.67;100.00;104022.75;5038288;28;20065;-69
2021/12/17 03:07:05;;;;;;;55.15;30.70;;;;;;;8.44;100.00;104021.00;5041737;28;20067;-70
2021/12/17 03:12:18;;;;;;;63.33;32.08;;;;;;;8.53;100.00;104009.97;5039957;28;20025;-69
2021/12/17 03:14:52;;;;;;;56.15;28.20;;;;;;;8.28;100.00;104012.97;5040564;28;20116;-71
2021/12/17 03:17:31;;;;;;;52.33;24.70;;;;;;;7.85;100.00;104013.56;5039780;28;20045;-70
2021/12/17 03:25:06;;;;;;;42.45;22.30;;;;;;;8.40;100.00;103997.78;5041355;28;20048;-71
2021/12/17 03:27:31;;;;;;;44.28;21.45;;;;;;;8.45;100.00;103997.25;5038565;28;20045;-70
2021/12/17 03:29:57;;;;;;;45.55;22.48;;;;;;;8.49;100.00;103998.53;5039143;28;20024;-70
2021/12/17 03:32:22;;;;;;;46.38;23.25;;;;;;;8.49;100.00;104001.28;5040002;28;20066;-69
2021/12/17 03:34:48;;;;;;;37.70;21.02;;;;;;;8.77;100.00;104006.91;5041503;28;20346;-70
2021/12/17 03:37:14;;;;;;;42.60;21.52;;;;;;;8.82;100.00;104000.81;5039327;28;20112;-70
2021/12/17 03:39:39;;;;;;;49.85;22.55;;;;;;;8.77;100.00;103997.81;5023987;28;20029;-70
2021/12/17 03:42:07;;;;;;;44.70;22.63;;;;;;;8.59;100.00;103998.25;5039397;28;20025;-70
2021/12/17 03:44:33;;;;;;;48.42;22.75;;;;;;;8.61;100.00;104002.50;5041504;28;20747;-70
2021/12/17 03:47:00;;;;;;;52.13;24.98;;;;;;;8.63;100.00;103996.84;5039921;28;20056;-70
2021/12/17 03:49:27;;;;;;;55.55;24.42;;;;;;;8.51;100.00;104001.09;5020065;28;20082;-70
2021/12/17 03:52:05;;;;;;;62.00;26.52;;;;;;;8.53;100.00;104001.75;5022417;28;20134;-71
2021/12/17 03:54:36;;;;;;;54.90;25.38;;;;;;;8.72;100.00;104003.03;5043061;28;20028;-70
2021/12/17 03:57:07;;;;;;;58.90;25.85;;;;;;;8.40;100.00;104005.97;5042115;28;20495;-70
2021/12/17 03:59:33;;;;;;;50.75;23.73;;;;;;;8.05;100.00;104002.97;5041252;28;20269;-72
2021/12/17 04:01:59;;;;;;;50.78;23.20;;;;;;;8.16;100.00;104004.38;5042947;28;20403;-70
2021/12/17 04:04:26;;;;;;;52.65;24.80;;;;;;;8.37;100.00;104017.28;5041933;28;20033;-70
2021/12/17 04:06:51;;;;;;;52.80;25.60;;;;;;;8.28;100.00;104011.09;5026155;28;20103;-70
2021/12/17 04:09:21;;;;;;;50.45;24.48;;;;;;;8.17;100.00;104013.44;5043420;28;20037;-70
2021/12/17 04:11:47;;;;;;;48.45;22.52;;;;;;;8.38;100.00;104015.38;5024190;28;20120;-71
2021/12/17 04:14:14;;;;;;;53.65;24.58;;;;;;;8.55;100.00;104016.94;5042735;28;20501;-70
2021/12/17 04:16:40;;;;;;;57.10;25.42;;;;;;;8.72;100.00;104014.81;5040676;28;20761;-70
2021/12/17 04:19:05;;;;;;;48.15;24.83;;;;;;;8.70;100.00;104019.63;5043649;28;20506;-70
2021/12/17 04:21:31;;;;;;;50.60;24.60;;;;;;;8.74;100.00;104015.50;5039241;28;20037;-70
2021/12/17 04:23:57;;;;;;;46.95;24.13;;;;;;;8.53;100.00;104020.91;5045970;28;20032;-70
2021/12/17 04:26:33;;;;;;;48.05;23.60;;;;;;;8.62;100.00;104017.00;5041119;28;20108;-70
2021/12/17 04:28:58;;;;;;;45.42;20.92;;;;;;;8.70;100.00;104016.91;5044762;28;20033;-70
2021/12/17 04:31:26;;;;;;;49.60;25.75;;;;;;;8.44;100.00;104017.41;5040285;28;20036;-71
2021/12/17 04:33:52;;;;;;;40.78;21.10;;;;;;;8.38;100.00;104020.84;5045266;28;20033;-70
2021/12/17 04:36:24;;;;;;;41.92;20.25;;;;;;;8.50;100.00;104013.09;5040051;28;20025;-71
2021/12/17 04:38:50;;;;;;;41.80;20.98;;;;;;;8.78;100.00;104015.94;5045796;28;20479;-71
2021/12/17 04:44:09;;;;;;;36.53;20.58;;;;;;;8.97;100.00;104014.50;5043985;28;20021;-70
2021/12/17 04:46:42;;;;;;;41.05;22.92;;;;;;;8.95;100.00;104017.41;5042545;28;20439;-70
2021/12/17 04:57:20;;;;;;;44.13;22.13;;;;;;;9.01;100.00;104002.94;5042295;28;20032;-70
2021/12/17 04:59:46;;;;;;;37.05;21.35;;;;;;;9.10;100.00;104000.94;5042912;28;20057;-71
2021/12/17 05:02:12;;;;;;;47.38;22.52;;;;;;;9.05;100.00;104014.38;5043736;28;20517;-71
2021/12/17 05:04:38;;;;;;;40.95;21.70;;;;;;;9.11;100.00;104013.56;5040134;28;20146;-71
2021/12/17 05:07:07;;;;;;;46.92;24.05;;;;;;;9.11;100.00;104008.09;5037835;28;20025;-71
2021/12/17 05:10:00;;;;;;;36.08;21.13;;;;;;;9.14;100.00;104007.72;5041470;28;20037;-71
2021/12/17 05:20:43;;;;;;;48.47;22.00;;;;;;;9.05;100.00;104008.91;5037924;28;20055;-71
2021/12/17 05:23:09;;;;;;;42.70;21.08;;;;;;;9.06;100.00;104007.00;5043886;28;20021;-71
2021/12/17 05:25:34;;;;;;;41.65;19.60;;;;;;;8.98;100.00;103999.75;5024315;28;20033;-71
2021/12/17 05:28:02;;;;;;;38.67;19.50;;;;;;;9.17;100.00;103988.16;5042309;28;20055;-70
2021/12/17 05:30:28;;;;;;;39.67;18.92;;;;;;;9.27;100.00;103998.78;5039167;28;20099;-70
2021/12/17 05:32:55;;;;;;;37.67;19.25;;;;;;;9.35;100.00;103992.34;5042665;28;20416;-71
2021/12/17 05:35:22;;;;;;;40.83;20.35;;;;;;;9.35;100.00;104000.56;5040044;28;20115;-70
2021/12/17 05:37:47;;;;;;;36.35;18.08;;;;;;;9.35;100.00;103995.91;5041277;28;20027;-71
2021/12/17 05:40:13;;;;;;;41.85;19.83;;;;;;;9.28;100.00;103988.66;5043059;28;20093;-69
2021/12/17 05:42:40;;;;;;;38.53;19.63;;;;;;;9.28;100.00;104005.09;5041520;28;20079;-70
2021/12/17 05:45:20;;;;;;;48.30;19.20;;;;;;;9.10;100.00;104006.41;5042559;28;20028;-71
2021/12/17 05:47:46;;;;;;;42.90;19.45;;;;;;;9.20;100.00;103998.72;5026547;28;20062;-71
2021/12/17 05:50:13;;;;;;;43.03;20.80;;;;;;;9.19;100.00;103998.91;5039862;28;20062;-70
2021/12/17 05:52:38;;;;;;;37.05;19.30;;;;;;;9.14;100.00;104004.97;5023488;28;20438;-71
2021/12/17 05:55:04;;;;;;;39.22;20.75;;;;;;;9.20;100.00;104006.09;5044615;28;20120;-70
2021/12/17 05:57:30;;;;;;;40.38;18.73;;;;;;;9.07;100.00;104015.00;5042010;28;20041;-70
2021/12/17 05:59:55;;;;;;;41.15;17.80;;;;;;;8.91;100.00;104018.00;5043466;28;20029;-69
2021/12/17 06:02:22;;;;;;;35.28;16.30;;;;;;;9.08;100.00;104013.97;5043835;28;20096;-70
2021/12/17 06:04:47;;;;;;;36.00;16.85;;;;;;;9.20;100.00;104017.88;5027664;28;20508;-70
2021/12/17 06:07:12;;;;;;;31.85;16.30;;;;;;;9.26;100.00;104018.16;5060793;28;20454;-70
2021/12/17 06:09:38;;;;;;;33.83;15.98;;;;;;;9.16;100.00;104010.25;5060666;28;20340;-70
2021/12/17 06:12:04;;;;;;;34.20;14.98;;;;;;;9.11;100.00;104016.31;5064005;28;20390;-70
2021/12/17 06:14:30;;;;;;;28.20;13.20;;;;;;;8.95;100.00;104020.16;5042575;28;20043;-70
2021/12/17 06:16:56;;;;;;;32.05;14.38;;;;;;;8.85;100.00;104030.53;5042546;28;20518;-70
2021/12/17 06:19:25;;;;;;;32.85;14.23;;;;;;;9.11;100.00;104029.16;5025246;28;20037;-70
2021/12/17 06:21:51;;;;;;;35.72;14.90;;;;;;;9.17;100.00;104029.22;5038530;28;20518;-70
2021/12/17 06:24:17;;;;;;;31.75;13.95;;;;;;;9.23;100.00;104037.69;5017505;28;20040;-71
2021/12/17 06:26:43;;;;;;;34.35;15.38;;;;;;;9.28;100.00;104046.16;5024117;28;20024;-70
2021/12/17 06:29:08;;;;;;;30.45;15.13;;;;;;;9.32;100.00;104028.31;5042560;28;20024;-70
2021/12/17 06:31:34;;;;;;;26.08;13.30;;;;;;;9.34;100.00;104035.28;5021909;28;20024;-70
2021/12/17 06:33:59;;;;;;;34.13;15.07;;;;;;;9.30;100.00;104031.25;5043699;28;20025;-70
2021/12/17 06:36:29;;;;;;;31.38;13.68;;;;;;;9.17;100.00;104045.66;5038129;28;20064;-70
2021/12/17 06:38:55;;;;;;;30.13;14.02;;;;;;;9.31;100.00;104041.19;5042132;28;20108;-69
2021/12/17 06:41:22;;;;;;;33.97;14.00;;;;;;;9.37;100.00;104039.53;5023825;28;20143;-70
2021/12/17 06:43:48;;;;;;;35.65;14.80;;;;;;;9.38;100.00;104041.22;5023811;28;20028;-70
2021/12/17 06:46:30;;;;;;;31.27;13.80;;;;;;;9.28;100.00;104043.44;5040474;28;20028;-70
2021/12/17 06:49:18;;;;;;;32.97;15.00;;;;;;;9.30;100.00;104044.09;5042007;28;20040;-70
2021/12/17 06:59:41;;;;;;;34.08;14.18;;;;;;;9.16;100.00;104045.84;5040778;28;20037;-69
2021/12/17 07:10:16;;;;;;;33.33;14.00;;;;;;;9.34;100.00;104043.50;5041734;28;20136;-70
2021/12/17 07:21:00;;;;;;;36.10;14.77;;;;;;;9.35;100.00;104058.06;5035883;28;20496;-71
2021/12/17 07:23:48;;;;;;;37.85;14.38;;;;;;;9.41;100.00;104057.25;5040601;28;20457;-71
2021/12/17 07:34:02;;;;;;;36.58;16.30;;;;;;;9.38;100.00;104063.16;5046829;28;20464;-71
2021/12/17 07:36:42;;;;;;;31.92;14.68;;;;;;;9.37;100.00;104066.91;5026102;28;20025;-72
2021/12/17 07:39:08;;;;;;;35.15;16.70;;;;;;;9.37;100.00;104058.69;5030693;28;20036;-71
2021/12/17 07:41:33;;;;;;;40.47;18.00;;;;;;;9.45;100.00;104061.31;5040483;28;20033;-70
2021/12/17 07:44:01;;;;;;;42.20;16.80;;;;;;;9.49;100.00;104070.81;5028304;28;20158;-70
2021/12/17 07:46:27;;;;;;;43.78;17.83;;;;;;;9.45;100.00;104058.56;5043789;28;20499;-70
2021/12/17 07:48:52;;;;;;;41.85;16.77;;;;;;;9.47;100.00;104067.44;5044467;28;20384;-70
2021/12/17 07:51:22;;;;;;;44.08;17.80;;;;;;;9.42;100.00;104071.81;5042755;28;20098;-70
2021/12/17 07:53:48;;;;;;;41.47;16.88;;;;;;;9.50;100.00;104079.91;5043088;28;20103;-71
2021/12/17 07:56:17;;;;;;;44.47;17.27;;;;;;;9.49;100.00;104083.66;5044720;28;20029;-70
2021/12/17 07:58:43;;;;;;;36.85;16.27;;;;;;;9.59;100.00;104080.59;5041097;28;20039;-71
2021/12/17 08:01:10;;;;;;;37.25;15.45;;;;;;;9.56;100.00;104082.69;5044002;28;20385;-71
2021/12/17 08:03:40;;;;;;;40.35;16.35;;;;;;;9.62;100.00;104096.66;5043872;28;20048;-71
2021/12/17 08:06:06;;;;;;;34.22;14.68;;;;;;;9.57;100.00;104100.84;5041632;28;20021;-72
2021/12/17 08:08:33;;;;;;;49.15;16.73;;;;;;;9.55;100.00;104094.69;5046524;28;20031;-71
2021/12/17 08:10:59;;;;;;;42.47;15.32;;;;;;;9.59;100.00;104095.13;5009345;28;20041;-72
2021/12/17 08:13:29;;;;;;;47.47;16.50;;;;;;;9.55;100.00;104094.69;5045239;28;20067;-71
2021/12/17 08:18:45;;;;;;;42.42;17.27;;;;;;;9.35;100.00;104096.38;5045667;28;20037;-70
2021/12/17 08:31:59;;;;;;;32.15;14.25;;;;;;;9.66;100.00;104084.28;5061152;28;20078;-71
2021/12/17 08:34:26;;;;;;;38.88;14.07;;;;;;;9.56;100.00;104082.69;5063172;28;20020;-70
2021/12/17 08:36:51;;;;;;;33.88;13.88;;;;;;;9.47;100.00;104081.13;5024964;28;20453;-71
2021/12/17 08:39:19;;;;;;;28.85;11.68;;;;;;;9.54;100.00;104078.44;5065417;28;20443;-71
2021/12/17 08:41:49;;;;;;;30.95;13.10;;;;;;;9.71;100.00;104081.78;5056661;28;20037;-71
2021/12/17 08:44:15;;;;;;;33.28;13.07;;;;;;;9.62;100.00;104075.56;5063805;28;20154;-70
2021/12/17 08:46:41;;;;;;;27.92;12.35;;;;;;;9.60;100.00;104077.66;5043336;28;20139;-70
2021/12/17 08:49:07;;;;;;;25.45;11.82;;;;;;;9.71;100.00;104081.78;5063520;28;20033;-71
2021/12/17 08:51:32;;;;;;;23.70;12.10;;;;;;;9.81;100.00;104074.06;5059861;28;20453;-71
2021/12/17 08:53:58;;;;;;;24.55;12.52;;;;;;;9.88;100.00;104074.13;5062225;28;20311;-71
2021/12/17 08:56:31;;;;;;;35.63;12.30;;;;;;;9.71;100.00;104074.41;5061586;28;20121;-70
2021/12/17 08:59:03;;;;;;;30.05;12.57;;;;;;;9.89;100.00;104076.66;5063540;28;20118;-70
2021/12/17 09:01:29;;;;;;;24.05;11.38;;;;;;;9.93;100.00;104072.47;5039133;28;20032;-71
2021/12/17 09:03:55;;;;;;;29.80;12.15;;;;;;;9.78;100.00;104079.94;5042394;28;20372;-71
2021/12/17 09:06:24;;;;;;;23.15;11.05;;;;;;;9.66;100.00;104079.63;5039411;28;20078;-71
2021/12/17 09:08:54;;;;;;;24.25;11.60;;;;;;;9.55;100.00;104077.41;5042189;28;20028;-71
2021/12/17 09:11:26;;;;;;;26.45;11.65;;;;;;;9.77;100.00;104082.88;5042338;28;20040;-71
2021/12/17 09:13:54;;;;;;;28.38;12.95;;;;;;;9.68;100.00;104090.41;5041183;28;20493;-70
2021/12/17 09:16:23;;;;;;;34.05;14.40;;;;;;;9.56;100.00;104079.13;5049086;28;20044;-70
2021/12/17 09:18:49;;;;;;;33.50;14.60;;;;;;;9.41;100.00;104079.16;5027664;28;20041;-71
2021/12/17 09:21:16;;;;;;;32.58;13.95;;;;;;;9.52;100.00;104089.59;5038611;28;20035;-71
2021/12/17 09:23:43;;;;;;;35.50;13.82;;;;;;;9.45;100.00;104093.34;5045718;28;20036;-71
2021/12/17 09:26:10;;;;;;;34.97;14.82;;;;;;;9.52;100.00;104097.81;5025025;28;20032;-70
2021/12/17 09:28:35;;;;;;;39.42;15.60;;;;;;;9.57;100.00;104097.22;5025933;28;20395;-70
2021/12/17 09:31:01;;;;;;;38.38;14.43;;;;;;;9.71;100.00;104095.50;5044304;28;20457;-70
2021/12/17 09:33:26;;;;;;;37.28;15.32;;;;;;;9.74;100.00;104092.34;5043754;28;20063;-71
2021/12/17 09:35:52;;;;;;;36.85;15.25;;;;;;;9.26;100.00;104103.03;5037457;28;20028;-71
2021/12/17 09:38:18;;;;;;;36.58;14.43;;;;;;;9.56;100.00;104104.63;5045654;28;20470;-70
2021/12/17 09:40:44;;;;;;;33.65;13.60;;;;;;;9.81;100.00;104096.00;5042145;28;20060;-71
2021/12/17 09:43:10;;;;;;;38.33;15.00;;;;;;;9.68;100.00;104106.84;5025251;28;20071;-71
2021/12/17 09:45:37;;;;;;;34.30;14.20;;;;;;;9.55;100.00;104107.53;5044818;28;20037;-71
2021/12/17 09:48:03;;;;;;;32.40;14.93;;;;;;;9.71;100.00;104103.72;5042345;28;20499;-70
2021/12/17 09:50:29;;;;;;;38.78;14.70;;;;;;;9.75;100.00;104114.06;5038707;28;20062;-70
2021/12/17 09:52:55;;;;;;;34.38;15.80;;;;;;;9.80;100.00;104115.38;5043672;28;20033;-70
2021/12/17 09:55:21;;;;;;;36.67;17.13;;;;;;;9.61;100.00;104117.72;5043424;28;20023;-70
2021/12/17 09:57:47;;;;;;;41.55;17.67;;;;;;;9.65;100.00;104124.50;5040784;28;20017;-70
2021/12/17 10:00:16;;;;;;;34.25;15.73;;;;;;;9.94;100.00;104120.78;5042547;28;20021;-71
2021/12/17 10:02:44;;;;;;;38.75;16.10;;;;;;;10.02;100.00;104124.41;5043904;28;20025;-70
2021/12/17 10:05:21;;;;;;;37.28;15.90;;;;;;;9.97;100.00;104122.28;5039010;28;20695;-70
2021/12/17 10:07:54;;;;;;;38.55;15.68;;;;;;;9.90;100.00;104118.63;5042061;28;20028;-71
2021/12/17 10:10:20;;;;;;;;;;;;;;;9.72;100.00;104125.44;5040423;28;20033;-71
2021/12/17 10:12:47;;;;;;;39.15;15.25;;;;;;;9.88;100.00;104134.41;5022880;28;20051;-71
2021/12/17 10:15:19;;;;;;;33.42;13.80;;;;;;;9.54;100.00;104134.09;5041078;28;20033;-70
2021/12/17 10:18:04;;;;;;;32.25;13.40;;;;;;;9.71;100.00;104144.81;5039750;28;20415;-71
2021/12/17 10:20:40;;;;;;;30.73;13.48;;;;;;;9.78;100.00;104136.66;5020985;28;20072;-71
2021/12/17 10:23:09;;;;;;;32.95;13.00;;;;;;;10.03;100.00;104139.81;5061110;28;20522;-71
2021/12/17 10:25:40;;;;;;;26.60;12.07;;;;;;;10.05;100.00;104145.94;5062320;28;20157;-71
2021/12/17 10:28:06;;;;;;;34.15;14.07;;;;;;;10.22;100.00;104141.03;5058727;28;20031;-70
2021/12/17 10:30:35;;;;;;;28.98;12.73;;;;;;;10.14;100.00;104141.19;5060397;28;20032;-71
2021/12/17 10:33:04;;;;;;;27.13;12.60;;;;;;;10.29;100.00;104140.03;5060103;28;20772;-72
2021/12/17 10:35:35;;;;;;;23.25;12.20;;;;;;;10.22;100.00;104139.13;5057381;28;20032;-71
2021/12/17 10:38:05;;;;;;;29.75;12.15;;;;;;;10.22;100.00;104136.38;5040644;28;20032;-71
2021/12/17 10:40:43;;;;;;;21.88;11.30;;;;;;;10.18;100.00;104145.22;5056763;28;20130;-71
2021/12/17 10:43:17;;;;;;;21.23;10.82;;;;;;;9.80;100.00;104142.78;5059492;28;20115;-71
2021/12/17 10:45:58;;;;;;;23.25;11.45;;;;;;;9.80;100.00;104143.59;5062306;28;20024;-71
2021/12/17 10:51:13;;;;;;;23.25;11.85;;;;;;;10.16;100.00;104136.34;5042098;28;20061;-70
2021/12/17 10:53:44;;;;;;;20.92;10.82;;;;;;;10.24;100.00;104131.53;5041200;28;20025;-71
2021/12/17 10:56:15;;;;;;;22.50;11.27;;;;;;;10.11;100.00;104131.44;5040307;28;20267;-71
2021/12/17 10:58:52;;;;;;;23.20;10.13;;;;;;;10.02;100.00;104128.00;5041197;28;20045;-70
2021/12/17 11:01:35;;;;;;;22.27;11.48;;;;;;;10.12;100.00;104130.41;5048024;28;20507;-71
2021/12/17 11:04:10;;;;;;;21.55;12.00;;;;;;;10.07;100.00;104133.75;5046741;28;20039;-71
2021/12/17 11:07:00;;;;;;;18.52;11.15;;;;;;;9.90;100.00;104129.56;5042294;28;20031;-72
2021/12/17 11:09:48;;;;;;;23.40;11.43;;;;;;;9.96;100.00;104130.69;5046541;28;20029;-71
2021/12/17 11:12:23;;;;;;;20.15;10.45;;;;;;;10.02;100.00;104129.88;5043058;28;20112;-71
2021/12/17 11:14:50;;;;;;;21.42;10.75;;;;;;;9.82;100.00;104125.09;5045003;28;20028;-71
2021/12/17 11:17:20;;;;;;;18.40;10.20;;;;;;;9.98;100.00;104123.94;5044189;28;20538;-74
2021/12/17 11:19:51;;;;;;;19.60;10.50;;;;;;;10.09;100.00;104123.41;5044816;28;20041;-74
2021/12/17 11:22:17;;;;;;;17.55;10.38;;;;;;;10.15;100.00;104124.53;5043998;28;20029;-74
2021/12/17 11:24:43;;;;;;;21.20;11.35;;;;;;;10.14;100.00;104125.56;5045360;28;20036;-76
2021/12/17 11:27:08;;;;;;;21.13;13.35;;;;;;;9.92;100.00;104114.66;5040087;28;20025;-74
2021/12/17 11:29:34;;;;;;;19.92;12.82;;;;;;;9.84;100.00;104122.13;5047434;28;20128;-75
2021/12/17 11:32:00;;;;;;;21.50;14.13;;;;;;;9.72;100.00;104122.69;5044905;28;20033;-73
2021/12/17 11:34:27;;;;;;;19.55;13.23;;;;;;;9.65;100.00;104121.75;5046169;28;20033;-74
2021/12/17 11:36:54;;;;;;;18.98;13.50;;;;;;;9.85;100.00;104110.97;5042089;28;20036;-75
2021/12/17 11:39:31;;;;;;;19.30;12.68;;;;;;;9.98;100.00;104114.91;5047217;28;20040;-74
2021/12/17 11:42:30;;;;;;;20.10;13.43;;;;;;;10.01;100.00;104111.75;5041557;28;20291;-75
2021/12/17 11:47:43;;;;;;;17.77;11.85;;;;;;;10.01;100.00;104115.34;5046921;28;20071;-74
2021/12/17 11:50:12;;;;;;;16.00;11.15;;;;;;;9.82;100.00;104111.41;5040456;28;20580;-74
2021/12/17 11:52:41;;;;;;;15.32;11.07;;;;;;;10.05;100.00;104105.69;5026681;28;20035;-73
2021/12/17 11:55:21;;;;;;;18.08;11.55;;;;;;;10.04;100.00;104103.97;5044885;28;20025;-74
2021/12/17 11:57:52;;;;;;;15.15;10.95;;;;;;;10.03;100.00;104115.16;5044154;28;20111;-73
2021/12/17 12:00:24;;;;;;;17.95;12.50;;;;;;;9.83;100.00;104115.81;5043641;28;20025;-74
2021/12/17 12:02:55;;;;;;;21.65;13.63;;;;;;;9.62;100.00;104115.81;5056503;28;20029;-75
2021/12/17 12:05:37;;;;;;;20.95;13.80;;;;;;;9.61;100.00;104111.38;5054833;28;21117;-74
2021/12/17 12:11:13;;;;;;;19.10;12.82;;;;;;;9.55;100.00;104119.34;5060232;28;20035;-75
2021/12/17 12:13:57;;;;;;;15.57;10.93;;;;;;;9.75;100.00;104124.16;5064274;28;20051;-75
2021/12/17 12:16:25;;;;;;;13.38;9.27;;;;;;;9.28;100.00;104125.56;5065523;28;20040;-75
2021/12/17 12:19:07;;;;;;;11.52;8.65;;;;;;;9.62;100.00;104116.66;5066855;28;20467;-74
2021/12/17 12:21:35;;;;;;;15.38;9.02;;;;;;;9.29;100.00;104124.53;5060008;28;20024;-75
2021/12/17 12:24:14;;;;;;;13.45;8.93;;;;;;;9.02;100.00;104121.50;5064678;28;20414;-74
2021/12/17 12:26:49;;;;;;;13.55;9.10;;;;;;;9.22;100.00;104124.47;5062196;28;20024;-74
2021/12/17 12:29:23;;;;;;;11.70;8.68;;;;;;;9.36;100.00;104123.59;5063908;28;20033;-74
2021/12/17 12:31:58;;;;;;;13.35;8.43;;;;;;;9.49;100.00;104130.22;5063777;28;20116;-75
2021/12/17 12:34:36;;;;;;;11.25;8.60;;;;;;;9.32;100.00;104125.00;5064484;28;20028;-74
2021/12/17 12:37:04;;;;;;;10.68;7.32;;;;;;;9.26;100.00;104131.22;5045398;28;20479;-74
2021/12/17 12:39:29;;;;;;;10.88;7.38;;;;;;;9.47;100.00;104127.69;5042783;28;20071;-74
2021/12/17 12:41:56;;;;;;;8.63;6.88;;;;;;;9.35;100.00;104132.81;5051445;28;20059;-75
2021/12/17 12:44:41;;;;;;;8.68;6.82;;;;;;;9.38;100.00;104137.91;5066723;28;20162;-76
2021/12/17 12:47:13;;;;;;;9.68;6.35;;;;;;;9.28;100.00;104133.78;5059412;28;20036;-74
2021/12/17 12:49:49;;;;;;;8.05;5.95;;;;;;;9.47;100.00;104135.06;5061932;28;20027;-76
2021/12/17 12:52:26;;;;;;;6.88;5.45;;;;;;;9.10;100.00;104124.13;5039986;28;20143;-74
2021/12/17 12:54:54;;;;;;;6.07;5.15;;;;;;;9.15;100.00;104129.00;5063764;28;20028;-77
2021/12/17 12:57:35;;;;;;;6.43;4.90;;;;;;;9.40;100.00;104125.94;5062306;28;20435;-75
2021/12/17 13:00:08;;;;;;;5.40;4.32;;;;;;;9.36;100.00;104123.59;5063915;28;20441;-74
2021/12/17 13:02:33;;;;;;;6.38;5.20;;;;;;;9.34;100.00;104116.59;5064357;28;20035;-75
2021/12/17 13:05:00;;;;;;;5.50;4.82;;;;;;;9.37;100.00;104117.03;5060310;28;20036;-74
2021/12/17 13:07:35;;;;;;;5.38;4.88;;;;;;;9.57;100.00;104113.66;5062921;28;20024;-75
2021/12/17 13:10:25;;;;;;;6.13;5.10;;;;;;;9.18;100.00;104107.59;5062137;28;20123;-73
2021/12/17 13:13:03;;;;;;;5.40;4.50;;;;;;;9.13;100.00;104104.56;5057151;28;20021;-74
2021/12/17 13:23:24;;;;;;;3.80;3.40;;;;;;;9.45;100.00;104098.81;5047724;28;20418;-76
2021/12/17 13:26:23;;;;;;;4.65;2.80;;;;;;;9.42;100.00;104094.56;5063435;28;20475;-76
2021/12/17 13:29:06;;;;;;;2.65;2.45;;;;;;;9.72;100.00;104098.03;5053328;28;20035;-77
2021/12/17 13:31:49;;;;;;;3.88;2.85;;;;;;;9.75;100.00;104096.78;5051900;28;20029;-76
2021/12/17 13:34:18;;;;;;;;;;;;;;;9.64;100.00;104081.72;5041350;28;20111;-77
2021/12/17 13:37:08;;;;;;;4.65;2.55;;;;;;;9.88;100.00;104085.91;5038213;28;19932;-76
2021/12/17 13:39:43;;;;;;;3.22;2.38;;;;;;;10.07;100.00;104078.91;5041958;28;20060;-73
2021/12/17 13:42:14;;;;;;;3.08;2.78;;;;;;;9.93;100.00;104085.34;5039057;28;20052;-76
2021/12/17 13:44:51;;;;;;;4.50;2.58;;;;;;;9.77;100.00;104085.63;5043423;28;20021;-77
2021/12/17 13:47:16;;;;;;;3.10;2.80;;;;;;;9.77;100.00;104082.88;5039340;28;20033;-76
2021/12/17 13:49:46;;;;;;;3.63;2.67;;;;;;;9.92;100.00;104081.75;5039440;28;20025;-76
2021/12/17 13:52:13;;;;;;;3.28;2.67;;;;;;;9.75;100.00;104080.34;5045490;28;20036;-76
2021/12/17 13:54:39;;;;;;;3.28;2.97;;;;;;;10.06;100.00;104087.34;5061435;28;20056;-75
2021/12/17 13:57:06;;;;;;;3.10;2.53;;;;;;;9.84;100.00;104084.63;5055875;28;20117;-75
2021/12/17 13:59:36;;;;;;;3.13;2.72;;;;;;;9.99;100.00;104080.97;5042781;28;20047;-76
2021/12/17 14:02:22;;;;;;;2.80;2.50;;;;;;;9.73;100.00;104083.28;5041065;28;20367;-75
2021/12/17 14:05:05;;;;;;;2.47;2.20;;;;;;;9.77;100.00;104094.66;5041563;28;20554;-74
2021/12/17 14:07:32;;;;;;;3.15;2.70;;;;;;;9.47;100.00;104093.97;5039276;28;20036;-77
2021/12/17 14:10:01;;;;;;;3.92;2.70;;;;;;;9.64;100.00;104092.69;5042054;28;20436;-76
2021/12/17 14:12:31;;;;;;;3.20;2.60;;;;;;;9.55;100.00;104094.69;5040045;28;20032;-76
2021/12/17 14:15:02;;;;;;;3.65;2.80;;;;;;;9.72;100.00;104094.41;5042690;28;20135;-75